createdAt,value
2022-10-13T00:44:58.590Z,101819.78
2022-10-13T00:47:28.321Z,101816.06
2022-10-13T00:49:55.792Z,101814.38
2022-10-13T00:52:24.706Z,101813.53
2022-10-13T00:54:51.662Z,101815.03
2022-10-13T00:57:20.913Z,101822.28
2022-10-13T00:59:48.620Z,101814.19
2022-10-13T01:02:15.829Z,101823.47
2022-10-13T01:04:46.347Z,101826.03
2022-10-13T01:07:16.021Z,101819.78
2022-10-13T01:09:42.566Z,101819.59
2022-10-13T01:12:24.080Z,101825.63
2022-10-13T01:15:11.905Z,101824.81
2022-10-13T01:17:38.232Z,101815.72
2022-10-13T01:20:21.405Z,101819.06
2022-10-13T01:23:09.401Z,101815.31
2022-10-13T01:25:54.062Z,101816.84
2022-10-13T01:28:34.743Z,101809.09
2022-10-13T01:31:11.765Z,101810.13
2022-10-13T01:33:50.865Z,101809.28
2022-10-13T01:36:35.810Z,101805.75
2022-10-13T01:39:23.819Z,101800.16
2022-10-13T01:41:55.576Z,101807.44
2022-10-13T01:44:30.625Z,101810.75
2022-10-13T01:46:58.266Z,101813.66
2022-10-13T01:49:30.490Z,101797.13
2022-10-13T01:52:02.922Z,101789.38
2022-10-13T01:54:29.291Z,101782.31
2022-10-13T01:56:57.648Z,101791.41
2022-10-13T01:59:27.650Z,101787.03
2022-10-13T02:02:21.507Z,101773.38
2022-10-13T02:04:59.530Z,101780.25
2022-10-13T02:07:42.072Z,101783.78
2022-10-13T02:10:16.178Z,101789.56
2022-10-13T02:12:48.586Z,101783.50
2022-10-13T02:15:20.242Z,101788.25
2022-10-13T02:17:46.614Z,101783.00
2022-10-13T02:20:16.659Z,101777.81
2022-10-13T02:22:47.234Z,101760.28
2022-10-13T02:25:13.668Z,101748.47
2022-10-13T02:27:40.544Z,101767.19
2022-10-13T02:30:07.379Z,101752.69
2022-10-13T02:32:33.858Z,101747.28
2022-10-13T02:35:00.248Z,101742.72
2022-10-13T02:37:26.714Z,101747.56
2022-10-13T02:39:53.115Z,101743.69
2022-10-13T02:42:19.908Z,101745.00
2022-10-13T02:44:46.409Z,101732.16
2022-10-13T02:47:13.201Z,101748.19
2022-10-13T02:49:39.556Z,101738.84
2022-10-13T02:52:06.026Z,101733.47
2022-10-13T02:54:32.463Z,101728.06
2022-10-13T02:56:59.107Z,101729.09
2022-10-13T02:59:25.505Z,101728.25
2022-10-13T03:01:51.874Z,101730.94
2022-10-13T03:04:18.279Z,101724.53
2022-10-13T03:06:44.762Z,101728.06
2022-10-13T03:09:12.997Z,101726.19
2022-10-13T03:11:41.433Z,101721.63
2022-10-13T03:14:07.783Z,101714.41
2022-10-13T03:16:34.152Z,101720.78
2022-10-13T03:19:00.629Z,101711.69
2022-10-13T03:21:27.132Z,101715.41
2022-10-13T03:23:53.899Z,101706.47
2022-10-13T03:26:20.752Z,101703.78
2022-10-13T03:28:51.215Z,101713.72
2022-10-13T03:31:18.128Z,101702.94
2022-10-13T03:33:46.523Z,101702.94
2022-10-13T03:36:13.370Z,101707.97
2022-10-13T03:38:42.116Z,101707.13
2022-10-13T03:41:11.848Z,101703.59
2022-10-13T03:43:38.547Z,101708.81
2022-10-13T03:46:06.389Z,101705.06
2022-10-13T03:48:34.230Z,101692.63
2022-10-13T03:51:04.113Z,101694.66
2022-10-13T03:53:30.518Z,101698.38
2022-10-13T03:55:56.862Z,101695.66
2022-10-13T03:58:24.399Z,101694.66
2022-10-13T04:00:53.019Z,101693.81
2022-10-13T04:03:19.597Z,101689.25
2022-10-13T04:05:46.946Z,101686.19
2022-10-13T04:08:14.406Z,101686.84
2022-10-13T04:10:40.898Z,101681.25
2022-10-13T04:13:07.827Z,101683.97
2022-10-13T04:15:40.383Z,101680.06
2022-10-13T04:18:08.272Z,101684.44
2022-10-13T04:20:38.035Z,101674.47
2022-10-13T04:23:04.445Z,101671.78
2022-10-13T04:25:30.799Z,101665.16
2022-10-13T04:27:57.168Z,101672.03
2022-10-13T04:30:23.546Z,101668.34
2022-10-13T04:32:49.924Z,101678.94
2022-10-13T04:35:16.815Z,101681.66
2022-10-13T04:37:45.257Z,101683.31
2022-10-13T04:40:15.569Z,101688.72
2022-10-13T04:42:42.161Z,101681.44
2022-10-13T04:45:08.948Z,101681.84
2022-10-13T04:47:39.803Z,101689.47
2022-10-13T04:50:06.534Z,101693.56
2022-10-13T04:52:34.478Z,101691.88
2022-10-13T04:55:00.913Z,101686.47
2022-10-13T04:57:27.311Z,101685.63
2022-10-13T04:59:56.684Z,101692.88
2022-10-13T05:02:23.072Z,101687.03
2022-10-13T05:04:49.434Z,101681.47
2022-10-13T05:07:18.366Z,101681.06
2022-10-13T05:09:45.636Z,101679.22
2022-10-13T05:12:12.542Z,101678.19
2022-10-13T05:14:38.904Z,101674.28
2022-10-13T05:17:07.380Z,101670.56
2022-10-13T05:19:33.744Z,101667.47
2022-10-13T05:22:00.249Z,101663.94
2022-10-13T05:24:36.544Z,101663.94
2022-10-13T05:27:09.124Z,101663.78
2022-10-13T05:29:36.283Z,101670.00
2022-10-13T05:32:06.588Z,101676.59
2022-10-13T05:34:33.688Z,101678.28
2022-10-13T05:37:00.630Z,101674.75
2022-10-13T05:39:27.319Z,101676.25
2022-10-13T05:41:53.925Z,101667.94
2022-10-13T05:44:21.320Z,101672.72
2022-10-13T05:46:54.653Z,101666.47
2022-10-13T05:49:21.074Z,101666.94
2022-10-13T05:51:50.476Z,101664.06
2022-10-13T05:54:24.381Z,101664.06
2022-10-13T05:57:08.435Z,101665.72
2022-10-13T05:59:39.466Z,101665.72
2022-10-13T06:02:09.726Z,101661.16
2022-10-13T06:04:41.886Z,101652.69
2022-10-13T06:07:09.789Z,101652.69
2022-10-13T06:09:38.377Z,101656.88
2022-10-13T06:12:06.145Z,101660.63
2022-10-13T06:14:33.265Z,101654.00
2022-10-13T06:17:01.481Z,101650.25
2022-10-13T06:19:27.933Z,101649.41
2022-10-13T06:21:54.311Z,101653.63
2022-10-13T06:24:20.730Z,101652.44
2022-10-13T06:26:47.082Z,101648.69
2022-10-13T06:29:13.451Z,101653.06
2022-10-13T06:31:39.868Z,101653.72
2022-10-13T06:34:07.418Z,101644.97
2022-10-13T06:36:33.778Z,101643.56
2022-10-13T06:39:00.164Z,101641.69
2022-10-13T06:41:26.496Z,101634.41
2022-10-13T06:43:53.036Z,101634.72
2022-10-13T06:46:20.853Z,101636.38
2022-10-13T06:48:51.035Z,101638.88
2022-10-13T06:51:17.526Z,101640.56
2022-10-13T06:53:44.061Z,101636.00
2022-10-13T06:56:10.597Z,101627.03
2022-10-13T06:58:37.657Z,101643.47
2022-10-13T07:01:05.660Z,101644.50
2022-10-13T07:03:32.691Z,101650.25
2022-10-13T07:06:03.631Z,101653.44
2022-10-13T07:08:31.073Z,101648.50
2022-10-13T07:10:57.671Z,101652.22
2022-10-13T07:13:24.188Z,101650.16
2022-10-13T07:15:50.585Z,101650.81
2022-10-13T07:18:16.955Z,101648.75
2022-10-13T07:20:43.297Z,101650.41
2022-10-13T07:23:09.658Z,101649.41
2022-10-13T07:25:36.044Z,101653.59
2022-10-13T07:28:03.987Z,101649.22
2022-10-13T07:30:30.449Z,101644.84
2022-10-13T07:32:56.794Z,101647.72
2022-10-13T07:35:30.310Z,101647.72
2022-10-13T07:37:57.209Z,101640.66
2022-10-13T07:40:23.964Z,101643.16
2022-10-13T07:42:50.697Z,101641.31
2022-10-13T07:45:17.252Z,101638.59
2022-10-13T07:47:43.675Z,101640.28
2022-10-13T07:50:10.582Z,101626.94
2022-10-13T07:52:37.046Z,101629.84
2022-10-13T07:55:03.862Z,101624.91
2022-10-13T07:57:30.219Z,101625.94
2022-10-13T07:59:56.628Z,101643.63
2022-10-13T08:02:22.973Z,101640.06
2022-10-13T08:04:49.431Z,101641.38
2022-10-13T08:07:16.456Z,101647.25
2022-10-13T08:09:43.050Z,101641.84
2022-10-13T08:12:09.406Z,101640.44
2022-10-13T08:14:35.866Z,101642.09
2022-10-13T08:17:02.564Z,101635.69
2022-10-13T08:19:29.005Z,101637.16
2022-10-13T08:21:59.983Z,101639.69
2022-10-13T08:24:27.701Z,101640.31
2022-10-13T08:26:54.508Z,101639.72
2022-10-13T08:29:22.513Z,101638.91
2022-10-13T08:31:51.520Z,101647.66
2022-10-13T08:34:18.307Z,101639.38
2022-10-13T08:36:44.902Z,101645.84
2022-10-13T08:39:11.609Z,101634.66
2022-10-13T08:41:40.846Z,101633.75
2022-10-13T08:47:22.851Z,101637.75
2022-10-13T08:49:49.702Z,101634.00
2022-10-13T08:52:26.161Z,101636.31
2022-10-13T08:54:54.996Z,101644.88
2022-10-13T08:57:23.501Z,101643.03
2022-10-13T08:59:51.536Z,101622.22
2022-10-13T09:02:30.746Z,101628.06
2022-10-13T09:05:01.817Z,101620.63
2022-10-13T09:07:32.881Z,101618.09
2022-10-13T09:09:59.267Z,101616.06
2022-10-13T09:12:27.746Z,101617.50
2022-10-13T09:15:07.230Z,101618.53
2022-10-13T09:17:34.680Z,101616.69
2022-10-13T09:20:21.195Z,101620.88
2022-10-13T09:23:22.324Z,101620.66
2022-10-13T09:25:51.303Z,101624.19
2022-10-13T09:28:22.951Z,101627.38
2022-10-13T09:31:01.597Z,101635.47
2022-10-13T09:33:27.951Z,101627.75
2022-10-13T09:35:57.058Z,101639.22
2022-10-13T09:38:25.772Z,101635.31
2022-10-13T09:41:06.144Z,101635.94
2022-10-13T09:43:35.588Z,101643.22
2022-10-13T09:46:11.758Z,101633.59
2022-10-13T09:48:42.194Z,101640.44
2022-10-13T09:51:32.894Z,101640.44
2022-10-13T09:54:02.563Z,101635.22
2022-10-13T09:56:28.890Z,101637.34
2022-10-13T09:59:28.629Z,101637.81
2022-10-13T10:01:57.946Z,101638.84
2022-10-13T10:04:33.729Z,101635.09
2022-10-13T10:07:09.479Z,101635.31
2022-10-13T10:09:44.784Z,101639.09
2022-10-13T10:12:17.835Z,101631.19
2022-10-13T10:14:44.267Z,101639.09
2022-10-13T10:17:38.557Z,101635.16
2022-10-13T10:20:16.749Z,101640.13
2022-10-13T10:22:49.084Z,101629.31
2022-10-13T10:25:25.762Z,101628.88
2022-10-13T10:28:05.190Z,101625.81
2022-10-13T10:30:36.915Z,101620.84
2022-10-13T10:33:13.586Z,101615.44
2022-10-13T10:36:06.875Z,101615.03
2022-10-13T10:38:43.821Z,101618.00
2022-10-13T10:41:18.846Z,101602.19
2022-10-13T10:44:10.779Z,101614.69
2022-10-13T10:46:42.670Z,101612.66
2022-10-13T10:49:31.278Z,101613.47
2022-10-13T10:51:59.858Z,101610.97
2022-10-13T10:54:43.955Z,101619.28
2022-10-13T10:57:29.342Z,101613.22
2022-10-13T11:00:12.669Z,101622.56
2022-10-13T11:02:42.205Z,101622.13
2022-10-13T11:05:08.626Z,101611.91
2022-10-13T11:07:45.348Z,101616.84
2022-10-13T11:10:16.346Z,101612.09
2022-10-13T11:12:51.874Z,101604.59
2022-10-13T11:15:38.499Z,101608.81
2022-10-13T11:18:43.790Z,101608.81
2022-10-13T11:21:10.170Z,101601.97
2022-10-13T11:23:44.699Z,101604.66
2022-10-13T11:26:31.080Z,101604.66
2022-10-13T11:28:59.475Z,101601.75
2022-10-13T11:31:35.162Z,101597.84
2022-10-13T11:34:03.481Z,101594.75
2022-10-13T11:36:49.922Z,101589.91
2022-10-13T11:39:26.517Z,101590.09
2022-10-13T11:42:12.099Z,101579.28
2022-10-13T11:44:50.844Z,101581.53
2022-10-13T11:48:05.510Z,101580.50
2022-10-13T11:50:56.628Z,101567.38
2022-10-13T11:53:27.954Z,101568.00
2022-10-13T11:55:56.960Z,101567.19
2022-10-13T11:58:31.732Z,101563.25
2022-10-13T12:00:59.850Z,101559.28
2022-10-13T12:03:32.523Z,101563.69
2022-10-13T12:06:26.244Z,101566.19
2022-10-13T12:08:52.692Z,101556.19
2022-10-13T12:11:28.385Z,101567.69
2022-10-13T12:13:56.217Z,101565.59
2022-10-13T12:16:22.717Z,101564.38
2022-10-13T12:18:51.364Z,101561.66
2022-10-13T12:21:20.101Z,101567.09
2022-10-13T12:23:51.710Z,101552.72
2022-10-13T12:26:20.847Z,101550.84
2022-10-13T12:28:54.493Z,101554.38
2022-10-13T12:31:23.774Z,101548.13
2022-10-13T12:33:58.783Z,101557.25
2022-10-13T12:36:34.314Z,101550.19
2022-10-13T12:39:07.553Z,101548.91
2022-10-13T12:41:40.852Z,101548.47
2022-10-13T12:44:12.577Z,101548.03
2022-10-13T12:46:45.265Z,101552.59
2022-10-13T12:49:14.436Z,101548.88
2022-10-13T12:51:41.906Z,101551.59
2022-10-13T12:54:36.400Z,101556.34
2022-10-13T12:57:14.906Z,101556.75
2022-10-13T12:59:42.789Z,101559.66
2022-10-13T13:02:29.072Z,101557.78
2022-10-13T13:04:56.009Z,101548.00
2022-10-13T13:07:30.847Z,101542.59
2022-10-13T13:10:03.999Z,101542.59
2022-10-13T13:12:31.190Z,101549.00
2022-10-13T13:14:58.302Z,101552.59
2022-10-13T13:20:21.952Z,101551.47
2022-10-13T13:22:48.426Z,101556.25
2022-10-13T13:25:15.041Z,101553.94
2022-10-13T13:27:41.502Z,101556.00
2022-10-13T13:30:17.018Z,101544.09
2022-10-13T13:32:43.415Z,101544.31
2022-10-13T13:35:10.418Z,101540.78
2022-10-13T13:37:49.553Z,101536.19
2022-10-13T13:40:21.727Z,101532.44
2022-10-13T13:42:48.302Z,101528.91
2022-10-13T13:45:16.325Z,101524.72
2022-10-13T13:47:43.167Z,101531.19
2022-10-13T13:50:27.928Z,101532.00
2022-10-13T13:52:58.169Z,101534.72
2022-10-13T13:55:25.827Z,101534.91
2022-10-13T13:57:52.299Z,101545.72
2022-10-13T14:00:19.345Z,101538.44
2022-10-13T14:02:49.187Z,101540.13
2022-10-13T14:05:15.754Z,101533.50
2022-10-13T14:07:42.157Z,101531.41
2022-10-13T14:10:10.564Z,101531.03
2022-10-13T14:12:37.253Z,101528.31
2022-10-13T14:15:04.187Z,101524.97
2022-10-13T14:17:30.558Z,101521.44
2022-10-13T14:19:56.956Z,101516.22
2022-10-13T14:22:23.573Z,101524.34
2022-10-13T14:24:50.070Z,101526.00
2022-10-13T14:27:16.437Z,101517.88
2022-10-13T14:29:42.910Z,101517.88
2022-10-13T14:32:09.334Z,101517.88
2022-10-13T14:34:35.813Z,101524.34
2022-10-13T14:37:02.231Z,101518.28
2022-10-13T14:39:28.644Z,101512.25
2022-10-13T14:41:54.998Z,101516.00
2022-10-13T14:44:21.365Z,101517.44
2022-10-13T14:46:47.782Z,101521.63
2022-10-13T14:49:14.193Z,101526.22
2022-10-13T14:51:42.831Z,101520.59
2022-10-13T14:54:09.619Z,101524.97
2022-10-13T14:56:37.000Z,101506.03
2022-10-13T14:59:05.650Z,101512.09
2022-10-13T15:01:39.318Z,101513.31
2022-10-13T15:04:05.668Z,101505.84
2022-10-13T15:06:33.109Z,101511.66
2022-10-13T15:08:59.877Z,101504.56
2022-10-13T15:11:26.960Z,101511.66
2022-10-13T15:13:53.521Z,101507.06
2022-10-13T15:16:26.229Z,101507.28
2022-10-13T15:18:52.689Z,101504.56
2022-10-13T15:21:19.099Z,101496.63
2022-10-13T15:23:46.079Z,101495.38
2022-10-13T15:26:15.121Z,101497.22
2022-10-13T15:28:44.405Z,101497.22
2022-10-13T15:31:11.805Z,101500.78
2022-10-13T15:33:38.826Z,101499.50
2022-10-13T15:36:05.352Z,101497.19
2022-10-13T15:38:31.822Z,101492.63
2022-10-13T15:41:03.646Z,101500.53
2022-10-13T15:43:30.560Z,101492.41
2022-10-13T15:46:01.609Z,101503.47
2022-10-13T15:48:28.725Z,101502.84
2022-10-13T15:50:55.190Z,101507.44
2022-10-13T15:53:21.686Z,101492.88
2022-10-13T15:55:48.409Z,101492.66
2022-10-13T15:58:15.488Z,101483.72
2022-10-13T16:00:42.690Z,101480.81
2022-10-13T16:03:17.360Z,101479.78
2022-10-13T16:05:45.424Z,101476.88
2022-10-13T16:08:12.313Z,101479.78
2022-10-13T16:10:42.868Z,101476.03
2022-10-13T16:13:13.360Z,101468.31
2022-10-13T16:15:39.709Z,101475.41
2022-10-13T16:18:06.419Z,101468.97
2022-10-13T16:20:35.155Z,101477.28
2022-10-13T16:23:01.897Z,101469.34
2022-10-13T16:25:29.216Z,101482.88
2022-10-13T16:27:55.729Z,101478.50
2022-10-13T16:30:22.120Z,101479.56
2022-10-13T16:32:48.658Z,101477.69
2022-10-13T16:35:15.066Z,101477.84
2022-10-13T16:37:41.494Z,101473.50
2022-10-13T16:40:08.255Z,101477.25
2022-10-13T16:42:34.825Z,101483.47
2022-10-13T16:45:01.257Z,101490.53
2022-10-13T16:47:27.896Z,101487.00
2022-10-13T16:49:54.294Z,101499.69
2022-10-13T16:52:20.994Z,101502.41
2022-10-13T16:54:47.889Z,101499.69
2022-10-13T16:57:14.310Z,101501.56
2022-10-13T16:59:41.092Z,101506.97
2022-10-13T17:02:13.946Z,101505.31
2022-10-13T17:04:40.432Z,101512.38
2022-10-13T17:07:06.801Z,101522.16
2022-10-13T17:09:33.173Z,101526.94
2022-10-13T17:11:59.888Z,101525.06
2022-10-13T17:14:26.255Z,101535.06
2022-10-13T17:16:57.402Z,101535.25
2022-10-13T17:19:24.236Z,101536.47
2022-10-13T17:21:50.587Z,101540.19
2022-10-13T17:24:17.022Z,101545.81
2022-10-13T17:26:43.390Z,101550.19
2022-10-13T17:29:09.787Z,101546.63
2022-10-13T17:31:36.445Z,101545.81
2022-10-13T17:34:02.782Z,101548.50
2022-10-13T17:36:31.683Z,101553.09
2022-10-13T17:39:04.165Z,101554.13
2022-10-13T17:41:30.648Z,101555.34
2022-10-13T17:43:57.000Z,101557.19
2022-10-13T17:46:37.511Z,101563.63
2022-10-13T17:49:06.704Z,101564.63
2022-10-13T17:51:33.298Z,101562.97
2022-10-13T17:54:00.090Z,101560.47
2022-10-13T17:56:27.249Z,101557.94
2022-10-13T17:58:54.521Z,101561.88
2022-10-13T18:01:32.995Z,101561.22
2022-10-13T18:04:02.401Z,101550.16
2022-10-13T18:06:36.868Z,101553.06
2022-10-13T18:09:10.112Z,101551.59
2022-10-13T18:11:37.042Z,101560.28
2022-10-13T18:14:03.559Z,101559.81
2022-10-13T18:16:29.950Z,101561.44
2022-10-13T18:18:56.322Z,101566.19
2022-10-13T18:21:26.723Z,101574.66
2022-10-13T18:23:55.497Z,101570.50
2022-10-13T18:26:22.673Z,101562.38
2022-10-13T18:28:50.890Z,101565.25
2022-10-13T18:31:27.390Z,101570.03
2022-10-13T18:33:58.060Z,101575.81
2022-10-13T18:36:30.303Z,101573.31
2022-10-13T18:39:03.126Z,101583.28
2022-10-13T18:41:30.611Z,101572.00
2022-10-13T18:43:57.325Z,101585.53
2022-10-13T18:46:25.005Z,101569.47
2022-10-13T18:48:52.606Z,101575.72
2022-10-13T18:51:19.934Z,101572.19
2022-10-13T18:53:48.015Z,101567.00
2022-10-13T18:56:27.367Z,101561.97
2022-10-13T18:58:59.459Z,101563.00
2022-10-13T19:01:28.628Z,101574.16
2022-10-13T19:03:55.712Z,101569.13
2022-10-13T19:06:26.902Z,101583.03
2022-10-13T19:09:00.591Z,101579.88
2022-10-13T19:11:34.267Z,101582.94
2022-10-13T19:14:01.383Z,101577.09
2022-10-13T19:16:30.200Z,101584.56
2022-10-13T19:18:56.692Z,101582.84
2022-10-13T19:21:24.598Z,101585.56
2022-10-13T19:23:51.035Z,101582.22
2022-10-13T19:26:26.475Z,101578.84
2022-10-13T19:28:54.179Z,101589.19
2022-10-13T19:31:22.333Z,101585.66
2022-10-13T19:33:52.463Z,101586.69
2022-10-13T19:36:30.242Z,101588.56
2022-10-13T19:39:01.428Z,101582.31
2022-10-13T19:41:30.667Z,101589.59
2022-10-13T19:43:57.996Z,101592.44
2022-10-13T19:46:33.036Z,101592.28
2022-10-13T19:48:59.471Z,101593.13
2022-10-13T19:51:25.882Z,101589.38
2022-10-13T19:53:52.308Z,101596.84
2022-10-13T19:56:24.592Z,101593.94
2022-10-13T19:58:52.342Z,101595.81
2022-10-13T20:01:19.765Z,101594.78
2022-10-13T20:03:46.997Z,101589.19
2022-10-13T20:06:13.816Z,101599.97
2022-10-13T20:08:40.168Z,101592.75
2022-10-13T20:11:11.291Z,101605.22
2022-10-13T20:13:38.266Z,101602.88
2022-10-13T20:16:10.015Z,101609.78
2022-10-13T20:18:37.488Z,101608.09
2022-10-13T20:21:05.838Z,101610.16
2022-10-13T20:23:32.734Z,101610.16
2022-10-13T20:26:07.715Z,101603.91
2022-10-13T20:28:39.186Z,101606.97
2022-10-13T20:31:08.909Z,101604.28
2022-10-13T20:33:35.486Z,101605.31
2022-10-13T20:36:07.701Z,101601.78
2022-10-13T20:38:37.953Z,101603.81
2022-10-13T20:41:14.346Z,101606.72
2022-10-13T20:43:40.801Z,101609.97
2022-10-13T20:46:08.598Z,101603.06
2022-10-13T20:48:58.180Z,101605.97
2022-10-13T20:51:24.238Z,101603.63
2022-10-13T20:53:50.709Z,101610.44
2022-10-13T20:56:25.269Z,101608.09
2022-10-13T20:58:52.057Z,101603.72
2022-10-13T21:01:20.722Z,101614.72
2022-10-13T21:03:51.878Z,101612.84
2022-10-13T21:06:18.281Z,101611.34
2022-10-13T21:08:46.522Z,101610.31
2022-10-13T21:11:15.054Z,101612.19
2022-10-13T21:13:42.889Z,101611.53
2022-10-13T21:16:18.827Z,101607.34
2022-10-13T21:18:50.295Z,101619.16
2022-10-13T21:21:20.107Z,101614.13
2022-10-13T21:23:55.475Z,101618.69
2022-10-13T21:26:23.056Z,101610.59
2022-10-13T21:28:50.752Z,101608.94
2022-10-13T21:31:21.387Z,101599.13
2022-10-13T21:33:48.388Z,101608.94
2022-10-13T21:36:20.577Z,101598.13
2022-10-13T21:38:49.707Z,101610.94
2022-10-13T21:41:16.175Z,101603.69
2022-10-13T21:43:42.858Z,101607.41
2022-10-13T21:46:17.501Z,101592.06
2022-10-13T21:48:45.351Z,101585.34
2022-10-13T21:51:14.637Z,101589.06
2022-10-13T21:53:41.608Z,101590.09
2022-10-13T21:56:09.882Z,101591.09
2022-10-13T21:58:36.293Z,101583.19
2022-10-13T22:01:04.233Z,101586.09
2022-10-13T22:03:30.854Z,101575.47
2022-10-13T22:05:57.309Z,101583.56
2022-10-13T22:08:37.647Z,101585.63
2022-10-13T22:11:12.703Z,101586.16
2022-10-13T22:13:39.378Z,101585.50
2022-10-13T22:16:12.396Z,101587.00
2022-10-13T22:18:42.519Z,101586.81
2022-10-13T22:21:13.365Z,101576.03
2022-10-13T22:23:39.813Z,101585.31
2022-10-13T22:26:07.618Z,101584.66
2022-10-13T22:28:37.285Z,101590.25
2022-10-13T22:31:12.916Z,101581.13
2022-10-13T22:33:41.374Z,101578.44
2022-10-13T22:36:14.348Z,101576.56
2022-10-13T22:38:40.882Z,101575.91
2022-10-13T22:41:08.430Z,101576.94
2022-10-13T22:43:35.616Z,101580.84
2022-10-13T22:46:25.694Z,101571.25
2022-10-13T22:48:52.100Z,101572.09
2022-10-13T22:51:21.229Z,101567.88
2022-10-13T22:53:48.814Z,101566.22
2022-10-13T22:56:21.947Z,101569.28
2022-10-13T22:58:53.287Z,101567.97
2022-10-13T23:01:21.286Z,101570.84
2022-10-13T23:03:49.694Z,101570.22
2022-10-13T23:06:18.848Z,101562.47
2022-10-13T23:08:45.251Z,101568.03
2022-10-13T23:11:11.645Z,101563.88
2022-10-13T23:13:38.022Z,101563.03
2022-10-13T23:16:16.794Z,101556.81
2022-10-13T23:18:43.658Z,101556.81
2022-10-13T23:21:23.847Z,101545.84
2022-10-13T23:23:58.036Z,101536.72
2022-10-13T23:26:25.088Z,101542.94
2022-10-13T23:28:52.711Z,101538.38
2022-10-13T23:31:19.275Z,101537.75
2022-10-13T23:33:45.717Z,101538.94
2022-10-13T23:36:18.752Z,101536.63
2022-10-13T23:38:48.279Z,101536.97
2022-10-13T23:41:16.391Z,101529.25
2022-10-13T23:43:44.108Z,101527.59
2022-10-13T23:46:11.412Z,101524.06
2022-10-13T23:48:39.320Z,101526.75
2022-10-13T23:51:20.910Z,101517.84
2022-10-13T23:53:47.314Z,101520.53
2022-10-13T23:56:15.192Z,101519.66
2022-10-13T23:58:43.249Z,101521.91
